KGAD

Northeast Alabama Regional Airport

Gadsden, Alabama, USA
METAR KGAD 230256Z AUTO 03003KT 10SM FEW013 21/21 A3007 RMK AO2 SLP180 T02110211 53018 TSNO
Observed Flight Rules
May-23 @ 02:56 UTC (14 minutes ago) Visual Flight Rules
Wind Visibility Clouds
30° at 3 knots 10 miles
  • Few at 1,300' AGL
Temperatures Readings
Current 21°C / 70°F
Dewpoint 21°C / 70°F
Humidity 100%
Altimeter 30.07" Hg
Pressure 1018 hPa
Elevation 173
METAR KGAD 230256Z AUTO 03003KT 10SM FEW013 21/21 A3007 RMK AO2 SLP180 T02110211 53018 TSNO
Observed Flight Rules
May-23 @ 02:56 UTC
(14 minutes ago)
VFR
Wind Visibility
30° at 3 knots 10 miles
Clouds
  • Few at 1,300' AGL
Temperature Dewpoint
21°C / 70°F 21°C / 70°F
Humidity Altimeter Pressure
100% 30.07" Hg 1018 hPa